Novato, CA

11:49 PM PST on December 13, 2019 (GMT -0800)
Gnoss

Weather History for KDVO - October, 2019

Change the Weather History Date:

Thursday, October 17, 2019

  Actual Average (WUND) Record (WUND)
Temperature  
Mean Temperature 62 °F -  
Max Temperature 71 °F - - (-1)
Min Temperature 53 °F - - (-1)
Degree Days  
Heating Degree Days 3    
Growing Degree Days 12 (Base 50)    
Moisture  
Dew Point 47 °F    
Average Humidity 59    
Maximum Humidity 94    
Minimum Humidity 29    
Precipitation  
Precipitation 0.00 in - - ()
Sea Level Pressure  
Sea Level Pressure 29.95 in    
Wind  
Wind Speed 9 mph ()    
Max Wind Speed 21 mph    
Max Gust Speed 29 mph    
Visibility 10.0 miles    
Events      
Averages and records for this station are not official NWS values.
T = Trace of Precipitation, MM = Missing Value Source: Averaged Metar Reports

Daily Weather History Graph

Daily Weather History Graph

Search for Another Location

Airport or City:

Astronomy

Oct. 17, 2019 Rise Set
Actual Time 7:20 AM PDT 6:29 PM PDT
Civil Twilight 6:54 AM PDT 6:56 PM PDT
Nautical Twilight 6:23 AM PDT 7:27 PM PDT
Astronomical Twilight 5:52 AM PDT 7:57 PM PDT
Moon 9:08 PM PDT (10/17) 10:55 AM PDT (10/17)
Length of Visible Light 12h 02m
Length of Day
11h 09m
Waning Gibbous, 86% of the Moon is Illuminated
Oct 17
Waning Gibbous
Oct 21
Last Quarter
Oct 27
New
Nov 4
First Quarter
Nov 12
Full

Hourly Weather History & Observations

Time (PDT) Temp. Dew Point Humidity Pressure Visibility Wind Dir Wind Speed Gust Speed Precip Events Conditions
12:15 AM 59.0 °F 57.2 °F 94% 29.89 in 10.0 mi North 4.6 mph - N/A   Overcast
12:35 AM 59.0 °F 57.2 °F 94% 29.89 in 10.0 mi Calm Calm - N/A   Overcast
12:55 AM 60.8 °F 57.2 °F 88% 29.88 in 10.0 mi Calm Calm - N/A   Mostly Cloudy
1:15 AM 59.0 °F 55.4 °F 88% 29.88 in 10.0 mi Calm Calm - N/A   Scattered Clouds
1:35 AM 59.0 °F 57.2 °F 94% 29.88 in 10.0 mi Calm Calm - N/A   Partly Cloudy
1:55 AM 57.2 °F 55.4 °F 94% 29.89 in 10.0 mi Calm Calm - N/A   Scattered Clouds
2:15 AM 57.2 °F 53.6 °F 88% 29.89 in 10.0 mi Variable 4.6 mph - N/A   Mostly Cloudy
2:35 AM 60.8 °F 57.2 °F 88% 29.88 in 10.0 mi West 12.7 mph - N/A   Mostly Cloudy
2:55 AM 60.8 °F 57.2 °F 88% 29.89 in 10.0 mi NW 5.8 mph - N/A   Mostly Cloudy
3:15 AM 60.8 °F 57.2 °F 88% 29.88 in 10.0 mi West 5.8 mph 13.8 mph N/A   Mostly Cloudy
3:35 AM 60.8 °F 55.4 °F 82% 29.88 in 10.0 mi West 4.6 mph - N/A   Partly Cloudy
3:55 AM 60.8 °F 55.4 °F 82% 29.88 in 10.0 mi West 10.4 mph - N/A   Partly Cloudy
4:15 AM 60.8 °F 55.4 °F 82% 29.88 in 10.0 mi WNW 5.8 mph 12.7 mph N/A   Clear
4:35 AM 59.0 °F 53.6 °F 82% 29.88 in 10.0 mi NW 6.9 mph 13.8 mph N/A   Clear
4:55 AM 60.8 °F 51.8 °F 72% 29.89 in 10.0 mi NW 15.0 mph 21.9 mph N/A   Clear
5:15 AM 59.0 °F 50.0 °F 72% 29.89 in 10.0 mi WNW 15.0 mph - N/A   Clear
5:35 AM 59.0 °F 48.2 °F 67% 29.90 in 10.0 mi WNW 13.8 mph 20.7 mph N/A   Clear
5:55 AM 59.0 °F 46.4 °F 63% 29.90 in 10.0 mi WNW 13.8 mph 19.6 mph N/A   Clear
6:15 AM 59.0 °F 46.4 °F 63% 29.91 in 10.0 mi West 11.5 mph - N/A   Clear
6:35 AM 59.0 °F 44.6 °F 59% 29.92 in 10.0 mi West 8.1 mph 15.0 mph N/A   Clear
6:55 AM 57.2 °F 44.6 °F 63% 29.92 in 10.0 mi Variable 6.9 mph 12.7 mph N/A   Clear
7:15 AM 53.6 °F 48.2 °F 82% 29.93 in 10.0 mi NE 4.6 mph - N/A   Clear
7:35 AM 53.6 °F 48.2 °F 82% 29.93 in 10.0 mi NNW 5.8 mph - N/A   Clear
7:55 AM 55.4 °F 46.4 °F 72% 29.92 in 10.0 mi Variable 6.9 mph - N/A   Clear
8:15 AM 57.2 °F 44.6 °F 63% 29.93 in 10.0 mi WNW 9.2 mph 17.3 mph N/A   Clear
8:35 AM 59.0 °F 44.6 °F 59% 29.93 in 10.0 mi NW 17.3 mph 25.3 mph N/A   Clear
8:55 AM 60.8 °F 44.6 °F 55% 29.95 in 10.0 mi NNW 13.8 mph 25.3 mph N/A   Clear
9:15 AM 60.8 °F 44.6 °F 55% 29.95 in 10.0 mi NW 13.8 mph 19.6 mph N/A   Clear
9:35 AM 62.6 °F 42.8 °F 48% 29.96 in 10.0 mi WNW 18.4 mph 28.8 mph N/A   Clear
9:55 AM 60.8 °F 42.8 °F 52% 29.97 in 10.0 mi WNW 17.3 mph 26.5 mph N/A   Clear
10:15 AM 62.6 °F 44.6 °F 52% 29.98 in 10.0 mi WNW 15.0 mph 25.3 mph N/A   Clear
10:35 AM 64.4 °F 42.8 °F 45% 29.98 in 10.0 mi NW 20.7 mph 28.8 mph N/A   Clear
10:55 AM 66.2 °F 42.8 °F 43% 29.98 in 10.0 mi NW 17.3 mph 23.0 mph N/A   Clear
11:15 AM 66.2 °F 42.8 °F 43% 29.98 in 10.0 mi NW 15.0 mph 21.9 mph N/A   Clear
11:35 AM 68.0 °F 42.8 °F 40% 29.98 in 10.0 mi NW 15.0 mph 23.0 mph N/A   Clear
11:55 AM 69.8 °F 42.8 °F 38% 29.97 in 10.0 mi WNW 12.7 mph 21.9 mph N/A   Clear
12:15 PM 71.6 °F 39.2 °F 31% 29.97 in 10.0 mi NNW 17.3 mph - N/A   Clear
12:35 PM 71.6 °F 37.4 °F 29% 29.97 in 10.0 mi NW 19.6 mph 26.5 mph N/A   Clear
12:55 PM 71.6 °F 42.8 °F 35% 29.97 in 10.0 mi WNW 13.8 mph 23.0 mph N/A   Clear
1:15 PM 71.6 °F 42.8 °F 35% 29.97 in 10.0 mi WNW 15.0 mph 21.9 mph N/A   Clear
1:35 PM 71.6 °F 42.8 °F 35% 29.97 in 10.0 mi NW 10.4 mph 21.9 mph N/A   Clear
1:55 PM 71.6 °F 42.8 °F 35% 29.96 in 10.0 mi West 16.1 mph - N/A   Clear
2:15 PM 69.8 °F 42.8 °F 38% 29.97 in 10.0 mi WNW 16.1 mph 24.2 mph N/A   Clear
2:35 PM 69.8 °F 44.6 °F 40% 29.96 in 10.0 mi West 12.7 mph 23.0 mph N/A   Clear
2:55 PM 69.8 °F 44.6 °F 40% 29.96 in 10.0 mi West 16.1 mph 25.3 mph N/A   Clear
3:15 PM 68.0 °F 44.6 °F 43% 29.96 in 10.0 mi West 18.4 mph 27.6 mph N/A   Clear
3:35 PM 68.0 °F 44.6 °F 43% 29.96 in 10.0 mi West 12.7 mph 25.3 mph N/A   Clear
3:55 PM 66.2 °F 46.4 °F 49% 29.96 in 10.0 mi West 20.7 mph 28.8 mph N/A   Clear
4:15 PM 66.2 °F 46.4 °F 49% 29.96 in 10.0 mi West 20.7 mph - N/A   Clear
4:35 PM 66.2 °F 46.4 °F 49% 29.95 in 10.0 mi West 19.6 mph 27.6 mph N/A   Clear
4:55 PM 66.2 °F 46.4 °F 49% 29.95 in 10.0 mi West 15.0 mph 26.5 mph N/A   Clear
5:15 PM 64.4 °F 46.4 °F 52% 29.95 in 10.0 mi West 17.3 mph 23.0 mph N/A   Clear
5:35 PM 64.4 °F 46.4 °F 52% 29.95 in 10.0 mi West 13.8 mph 20.7 mph N/A   Clear
5:55 PM 64.4 °F 46.4 °F 52% 29.95 in 10.0 mi West 17.3 mph 23.0 mph N/A   Clear
6:15 PM 62.6 °F 46.4 °F 55% 29.95 in 10.0 mi West 13.8 mph 24.2 mph N/A   Clear
6:35 PM 62.6 °F 46.4 °F 55% 29.96 in 10.0 mi West 17.3 mph 25.3 mph N/A   Clear
6:55 PM 62.6 °F 46.4 °F 55% 29.96 in 10.0 mi West 17.3 mph 27.6 mph N/A   Clear
7:15 PM 62.6 °F 46.4 °F 55% 29.97 in 10.0 mi West 19.6 mph 25.3 mph N/A   Clear
7:35 PM 62.6 °F 44.6 °F 52% 29.97 in 10.0 mi WNW 12.7 mph 23.0 mph N/A   Clear
7:55 PM 62.6 °F 44.6 °F 52% 29.98 in 10.0 mi NW 15.0 mph 25.3 mph N/A   Clear
8:15 PM 62.6 °F 44.6 °F 52% 29.98 in 10.0 mi NW 13.8 mph 21.9 mph N/A   Clear
8:35 PM 62.6 °F 44.6 °F 52% 29.98 in 10.0 mi NW 13.8 mph - N/A   Clear
8:55 PM 60.8 °F 44.6 °F 55% 29.98 in 10.0 mi NW 12.7 mph - N/A   Clear
9:15 PM 60.8 °F 44.6 °F 55% 29.98 in 10.0 mi NW 16.1 mph - N/A   Clear
9:35 PM 60.8 °F 44.6 °F 55% 29.99 in 10.0 mi NW 18.4 mph - N/A   Clear
9:55 PM 60.8 °F 44.6 °F 55% 30.00 in 10.0 mi NW 13.8 mph 26.5 mph N/A   Clear
10:15 PM 60.8 °F 44.6 °F 55% 30.00 in 10.0 mi NW 15.0 mph 20.7 mph N/A   Clear
10:35 PM 60.8 °F 44.6 °F 55% 30.01 in 10.0 mi NW 20.7 mph - N/A   Clear
10:55 PM 60.8 °F 44.6 °F 55% 30.01 in 10.0 mi NW 12.7 mph 23.0 mph N/A   Clear
11:15 PM 60.8 °F 44.6 °F 55% 30.02 in 10.0 mi NW 16.1 mph 24.2 mph N/A   Clear
11:35 PM 60.8 °F 42.8 °F 52% 30.02 in 10.0 mi NW 13.8 mph - N/A   Clear
11:55 PM 59.0 °F 44.6 °F 59% 30.02 in 10.0 mi NNW 10.4 mph 17.3 mph N/A   Clear